sensor_id;sensor_type;location;lat;lon;timestamp;P1;P2;P0
47810;PMS5003;33575;52.600;7.318;2022-11-23T00:02:12;15;13;
47810;PMS5003;33575;52.600;7.318;2022-11-23T00:04:42;15;15;
47810;PMS5003;33575;52.600;7.318;2022-11-23T00:07:13;12;12;
47810;PMS5003;33575;52.600;7.318;2022-11-23T00:09:44;11;11;
47810;PMS5003;33575;52.600;7.318;2022-11-23T00:12:14;14;14;
47810;PMS5003;33575;52.600;7.318;2022-11-23T00:14:45;12;12;
47810;PMS5003;33575;52.600;7.318;2022-11-23T00:17:16;12;11;
47810;PMS5003;33575;52.600;7.318;2022-11-23T00:19:46;12;12;
47810;PMS5003;33575;52.600;7.318;2022-11-23T00:22:17;13;13;
47810;PMS5003;33575;52.600;7.318;2022-11-23T00:24:47;12;12;
47810;PMS5003;33575;52.600;7.318;2022-11-23T00:27:18;13;13;
47810;PMS5003;33575;52.600;7.318;2022-11-23T00:29:49;15;13;
47810;PMS5003;33575;52.600;7.318;2022-11-23T00:32:19;16;14;
47810;PMS5003;33575;52.600;7.318;2022-11-23T00:34:50;14;13;
47810;PMS5003;33575;52.600;7.318;2022-11-23T00:37:20;12;12;
47810;PMS5003;33575;52.600;7.318;2022-11-23T00:39:51;12;12;
47810;PMS5003;33575;52.600;7.318;2022-11-23T00:42:22;12;12;
47810;PMS5003;33575;52.600;7.318;2022-11-23T00:44:52;12;11;
47810;PMS5003;33575;52.600;7.318;2022-11-23T00:47:23;13;13;
47810;PMS5003;33575;52.600;7.318;2022-11-23T00:49:54;14;12;
47810;PMS5003;33575;52.600;7.318;2022-11-23T00:52:24;10;10;
47810;PMS5003;33575;52.600;7.318;2022-11-23T00:54:55;13;12;
47810;PMS5003;33575;52.600;7.318;2022-11-23T00:57:25;24;21;
47810;PMS5003;33575;52.600;7.318;2022-11-23T00:59:56;14;14;
47810;PMS5003;33575;52.600;7.318;2022-11-23T01:02:26;10;10;
47810;PMS5003;33575;52.600;7.318;2022-11-23T01:04:57;13;13;
47810;PMS5003;33575;52.600;7.318;2022-11-23T01:07:28;11;11;
47810;PMS5003;33575;52.600;7.318;2022-11-23T01:09:58;13;12;
47810;PMS5003;33575;52.600;7.318;2022-11-23T01:12:29;11;10;
47810;PMS5003;33575;52.600;7.318;2022-11-23T01:15:00;12;11;
47810;PMS5003;33575;52.600;7.318;2022-11-23T01:17:30;11;11;
47810;PMS5003;33575;52.600;7.318;2022-11-23T01:20:01;12;10;
47810;PMS5003;33575;52.600;7.318;2022-11-23T01:22:32;13;12;
47810;PMS5003;33575;52.600;7.318;2022-11-23T01:25:03;11;10;
47810;PMS5003;33575;52.600;7.318;2022-11-23T01:27:33;12;11;
47810;PMS5003;33575;52.600;7.318;2022-11-23T01:30:04;11;11;
47810;PMS5003;33575;52.600;7.318;2022-11-23T01:32:34;13;13;
47810;PMS5003;33575;52.600;7.318;2022-11-23T01:35:05;14;14;
47810;PMS5003;33575;52.600;7.318;2022-11-23T01:37:35;14;14;
47810;PMS5003;33575;52.600;7.318;2022-11-23T01:40:06;13;11;
47810;PMS5003;33575;52.600;7.318;2022-11-23T01:42:38;11;10;
47810;PMS5003;33575;52.600;7.318;2022-11-23T01:47:37;12;12;
47810;PMS5003;33575;52.600;7.318;2022-11-23T01:50:08;12;12;
47810;PMS5003;33575;52.600;7.318;2022-11-23T01:52:39;13;11;
47810;PMS5003;33575;52.600;7.318;2022-11-23T01:55:09;14;14;
47810;PMS5003;33575;52.600;7.318;2022-11-23T01:57:40;14;14;
47810;PMS5003;33575;52.600;7.318;2022-11-23T02:00:11;16;13;
47810;PMS5003;33575;52.600;7.318;2022-11-23T02:02:43;16;15;
47810;PMS5003;33575;52.600;7.318;2022-11-23T02:05:12;15;15;
47810;PMS5003;33575;52.600;7.318;2022-11-23T02:07:42;16;14;
47810;PMS5003;33575;52.600;7.318;2022-11-23T02:10:13;18;15;
47810;PMS5003;33575;52.600;7.318;2022-11-23T02:12:44;17;16;
47810;PMS5003;33575;52.600;7.318;2022-11-23T02:15:14;14;13;
47810;PMS5003;33575;52.600;7.318;2022-11-23T02:17:45;13;12;
47810;PMS5003;33575;52.600;7.318;2022-11-23T02:20:16;15;14;
47810;PMS5003;33575;52.600;7.318;2022-11-23T02:22:49;14;14;
47810;PMS5003;33575;52.600;7.318;2022-11-23T02:25:19;16;14;
47810;PMS5003;33575;52.600;7.318;2022-11-23T02:27:47;15;15;
47810;PMS5003;33575;52.600;7.318;2022-11-23T02:30:18;17;17;
47810;PMS5003;33575;52.600;7.318;2022-11-23T02:32:49;19;18;
47810;PMS5003;33575;52.600;7.318;2022-11-23T02:35:19;15;13;
47810;PMS5003;33575;52.600;7.318;2022-11-23T02:37:50;16;16;
47810;PMS5003;33575;52.600;7.318;2022-11-23T02:40:24;18;18;
47810;PMS5003;33575;52.600;7.318;2022-11-23T02:42:51;19;18;
47810;PMS5003;33575;52.600;7.318;2022-11-23T02:45:24;17;16;
47810;PMS5003;33575;52.600;7.318;2022-11-23T02:47:52;16;16;
47810;PMS5003;33575;52.600;7.318;2022-11-23T02:50:22;16;16;
47810;PMS5003;33575;52.600;7.318;2022-11-23T02:52:53;15;15;
47810;PMS5003;33575;52.600;7.318;2022-11-23T02:55:24;18;17;
47810;PMS5003;33575;52.600;7.318;2022-11-23T02:57:54;16;15;
47810;PMS5003;33575;52.600;7.318;2022-11-23T03:00:25;18;18;
47810;PMS5003;33575;52.600;7.318;2022-11-23T03:02:56;16;15;
47810;PMS5003;33575;52.600;7.318;2022-11-23T03:05:26;16;16;
47810;PMS5003;33575;52.600;7.318;2022-11-23T03:07:57;17;17;
47810;PMS5003;33575;52.600;7.318;2022-11-23T03:10:27;20;19;
47810;PMS5003;33575;52.600;7.318;2022-11-23T03:12:57;16;15;
47810;PMS5003;33575;52.600;7.318;2022-11-23T03:15:28;15;15;
47810;PMS5003;33575;52.600;7.318;2022-11-23T03:17:58;20;18;
47810;PMS5003;33575;52.600;7.318;2022-11-23T03:20:29;21;20;
47810;PMS5003;33575;52.600;7.318;2022-11-23T03:22:59;16;16;
47810;PMS5003;33575;52.600;7.318;2022-11-23T03:25:30;17;16;
47810;PMS5003;33575;52.600;7.318;2022-11-23T03:28:00;18;16;
47810;PMS5003;33575;52.600;7.318;2022-11-23T03:30:31;18;16;
47810;PMS5003;33575;52.600;7.318;2022-11-23T03:33:02;18;16;
47810;PMS5003;33575;52.600;7.318;2022-11-23T03:35:32;18;18;
47810;PMS5003;33575;52.600;7.318;2022-11-23T03:38:03;18;18;
47810;PMS5003;33575;52.600;7.318;2022-11-23T03:40:33;17;16;
47810;PMS5003;33575;52.600;7.318;2022-11-23T03:43:04;14;14;
47810;PMS5003;33575;52.600;7.318;2022-11-23T03:45:34;23;20;
47810;PMS5003;33575;52.600;7.318;2022-11-23T03:48:05;16;16;
47810;PMS5003;33575;52.600;7.318;2022-11-23T03:50:35;16;14;
47810;PMS5003;33575;52.600;7.318;2022-11-23T03:53:06;17;16;
47810;PMS5003;33575;52.600;7.318;2022-11-23T03:55:37;17;17;
47810;PMS5003;33575;52.600;7.318;2022-11-23T03:58:07;17;16;
47810;PMS5003;33575;52.600;7.318;2022-11-23T04:00:38;17;17;
47810;PMS5003;33575;52.600;7.318;2022-11-23T04:03:08;16;15;
47810;PMS5003;33575;52.600;7.318;2022-11-23T04:05:39;20;18;
47810;PMS5003;33575;52.600;7.318;2022-11-23T04:08:09;18;16;
47810;PMS5003;33575;52.600;7.318;2022-11-23T04:10:39;20;19;
47810;PMS5003;33575;52.600;7.318;2022-11-23T04:13:10;21;19;
47810;PMS5003;33575;52.600;7.318;2022-11-23T04:15:41;19;19;
47810;PMS5003;33575;52.600;7.318;2022-11-23T04:18:11;17;17;
47810;PMS5003;33575;52.600;7.318;2022-11-23T04:20:42;19;17;
47810;PMS5003;33575;52.600;7.318;2022-11-23T04:23:14;15;14;
47810;PMS5003;33575;52.600;7.318;2022-11-23T04:25:44;20;17;
47810;PMS5003;33575;52.600;7.318;2022-11-23T04:28:14;16;14;
47810;PMS5003;33575;52.600;7.318;2022-11-23T04:30:45;14;13;
47810;PMS5003;33575;52.600;7.318;2022-11-23T04:33:15;14;14;
47810;PMS5003;33575;52.600;7.318;2022-11-23T04:35:46;15;13;
47810;PMS5003;33575;52.600;7.318;2022-11-23T04:38:17;15;13;
47810;PMS5003;33575;52.600;7.318;2022-11-23T04:40:47;12;11;
47810;PMS5003;33575;52.600;7.318;2022-11-23T04:43:18;13;12;
47810;PMS5003;33575;52.600;7.318;2022-11-23T04:45:48;14;14;
47810;PMS5003;33575;52.600;7.318;2022-11-23T04:48:19;12;12;
47810;PMS5003;33575;52.600;7.318;2022-11-23T04:50:55;11;11;
47810;PMS5003;33575;52.600;7.318;2022-11-23T04:53:20;13;13;
47810;PMS5003;33575;52.600;7.318;2022-11-23T04:55:51;16;16;
47810;PMS5003;33575;52.600;7.318;2022-11-23T04:58:21;13;13;
47810;PMS5003;33575;52.600;7.318;2022-11-23T05:00:51;14;13;
47810;PMS5003;33575;52.600;7.318;2022-11-23T05:03:22;12;12;
47810;PMS5003;33575;52.600;7.318;2022-11-23T05:05:52;12;12;
47810;PMS5003;33575;52.600;7.318;2022-11-23T05:08:23;11;9;
47810;PMS5003;33575;52.600;7.318;2022-11-23T05:10:54;9;9;
47810;PMS5003;33575;52.600;7.318;2022-11-23T05:13:24;12;10;
47810;PMS5003;33575;52.600;7.318;2022-11-23T05:15:54;11;11;
47810;PMS5003;33575;52.600;7.318;2022-11-23T05:18:25;12;10;
47810;PMS5003;33575;52.600;7.318;2022-11-23T05:20:56;12;10;
47810;PMS5003;33575;52.600;7.318;2022-11-23T05:23:26;11;11;
47810;PMS5003;33575;52.600;7.318;2022-11-23T05:25:57;12;11;
47810;PMS5003;33575;52.600;7.318;2022-11-23T05:28:33;9;9;
47810;PMS5003;33575;52.600;7.318;2022-11-23T05:30:58;11;10;
47810;PMS5003;33575;52.600;7.318;2022-11-23T05:33:29;12;11;
47810;PMS5003;33575;52.600;7.318;2022-11-23T05:36:00;12;11;
47810;PMS5003;33575;52.600;7.318;2022-11-23T05:38:30;10;10;
47810;PMS5003;33575;52.600;7.318;2022-11-23T05:41:01;13;13;
47810;PMS5003;33575;52.600;7.318;2022-11-23T05:43:31;11;10;
47810;PMS5003;33575;52.600;7.318;2022-11-23T05:46:02;12;9;
47810;PMS5003;33575;52.600;7.318;2022-11-23T05:48:33;14;12;
47810;PMS5003;33575;52.600;7.318;2022-11-23T05:51:06;11;11;
47810;PMS5003;33575;52.600;7.318;2022-11-23T05:53:34;14;11;
47810;PMS5003;33575;52.600;7.318;2022-11-23T05:56:04;9;8;
47810;PMS5003;33575;52.600;7.318;2022-11-23T05:58:35;10;9;
47810;PMS5003;33575;52.600;7.318;2022-11-23T06:01:05;13;12;
47810;PMS5003;33575;52.600;7.318;2022-11-23T06:03:36;10;10;
47810;PMS5003;33575;52.600;7.318;2022-11-23T06:06:07;12;10;
47810;PMS5003;33575;52.600;7.318;2022-11-23T06:08:37;13;11;
47810;PMS5003;33575;52.600;7.318;2022-11-23T06:11:08;12;11;
47810;PMS5003;33575;52.600;7.318;2022-11-23T06:13:39;12;11;
47810;PMS5003;33575;52.600;7.318;2022-11-23T06:16:09;11;11;
47810;PMS5003;33575;52.600;7.318;2022-11-23T06:18:40;13;11;
47810;PMS5003;33575;52.600;7.318;2022-11-23T06:21:11;12;12;
47810;PMS5003;33575;52.600;7.318;2022-11-23T06:23:42;14;13;
47810;PMS5003;33575;52.600;7.318;2022-11-23T06:26:12;18;16;
47810;PMS5003;33575;52.600;7.318;2022-11-23T06:28:42;11;10;
47810;PMS5003;33575;52.600;7.318;2022-11-23T06:31:12;14;12;
47810;PMS5003;33575;52.600;7.318;2022-11-23T06:33:43;11;10;
47810;PMS5003;33575;52.600;7.318;2022-11-23T06:36:14;12;11;
47810;PMS5003;33575;52.600;7.318;2022-11-23T06:38:45;14;12;
47810;PMS5003;33575;52.600;7.318;2022-11-23T06:41:15;10;10;
47810;PMS5003;33575;52.600;7.318;2022-11-23T06:43:45;15;11;
47810;PMS5003;33575;52.600;7.318;2022-11-23T06:46:16;15;14;
47810;PMS5003;33575;52.600;7.318;2022-11-23T06:48:47;13;13;
47810;PMS5003;33575;52.600;7.318;2022-11-23T06:51:17;16;13;
47810;PMS5003;33575;52.600;7.318;2022-11-23T06:53:48;13;13;
47810;PMS5003;33575;52.600;7.318;2022-11-23T06:56:19;14;14;
47810;PMS5003;33575;52.600;7.318;2022-11-23T06:58:49;16;15;
47810;PMS5003;33575;52.600;7.318;2022-11-23T07:01:20;19;16;
47810;PMS5003;33575;52.600;7.318;2022-11-23T07:03:50;15;12;
47810;PMS5003;33575;52.600;7.318;2022-11-23T07:06:21;17;16;
47810;PMS5003;33575;52.600;7.318;2022-11-23T07:08:52;15;14;
47810;PMS5003;33575;52.600;7.318;2022-11-23T07:11:22;18;16;
47810;PMS5003;33575;52.600;7.318;2022-11-23T07:13:52;17;17;
47810;PMS5003;33575;52.600;7.318;2022-11-23T07:16:23;14;12;
47810;PMS5003;33575;52.600;7.318;2022-11-23T07:18:53;18;18;
47810;PMS5003;33575;52.600;7.318;2022-11-23T07:21:24;17;16;
47810;PMS5003;33575;52.600;7.318;2022-11-23T07:23:54;19;19;
47810;PMS5003;33575;52.600;7.318;2022-11-23T07:26:25;15;13;
47810;PMS5003;33575;52.600;7.318;2022-11-23T07:28:55;17;15;
47810;PMS5003;33575;52.600;7.318;2022-11-23T07:31:26;16;15;
47810;PMS5003;33575;52.600;7.318;2022-11-23T07:33:56;17;15;
47810;PMS5003;33575;52.600;7.318;2022-11-23T07:36:27;18;17;
47810;PMS5003;33575;52.600;7.318;2022-11-23T07:38:58;15;15;
47810;PMS5003;33575;52.600;7.318;2022-11-23T07:41:28;15;15;
47810;PMS5003;33575;52.600;7.318;2022-11-23T07:43:59;17;16;
47810;PMS5003;33575;52.600;7.318;2022-11-23T07:46:29;19;16;
47810;PMS5003;33575;52.600;7.318;2022-11-23T07:49:00;19;18;
47810;PMS5003;33575;52.600;7.318;2022-11-23T07:51:30;17;15;
47810;PMS5003;33575;52.600;7.318;2022-11-23T07:54:00;17;15;
47810;PMS5003;33575;52.600;7.318;2022-11-23T07:56:31;17;16;
47810;PMS5003;33575;52.600;7.318;2022-11-23T07:59:02;15;15;
47810;PMS5003;33575;52.600;7.318;2022-11-23T08:01:32;17;16;
47810;PMS5003;33575;52.600;7.318;2022-11-23T08:04:03;19;17;
47810;PMS5003;33575;52.600;7.318;2022-11-23T08:06:33;17;17;
47810;PMS5003;33575;52.600;7.318;2022-11-23T08:09:03;18;17;
47810;PMS5003;33575;52.600;7.318;2022-11-23T08:11:34;19;18;
47810;PMS5003;33575;52.600;7.318;2022-11-23T08:14:04;18;16;
47810;PMS5003;33575;52.600;7.318;2022-11-23T08:16:34;18;17;
47810;PMS5003;33575;52.600;7.318;2022-11-23T08:19:05;16;16;
47810;PMS5003;33575;52.600;7.318;2022-11-23T08:21:35;15;14;
47810;PMS5003;33575;52.600;7.318;2022-11-23T08:24:06;16;13;
47810;PMS5003;33575;52.600;7.318;2022-11-23T08:26:36;15;15;
47810;PMS5003;33575;52.600;7.318;2022-11-23T08:29:07;17;16;
47810;PMS5003;33575;52.600;7.318;2022-11-23T08:31:37;14;14;
47810;PMS5003;33575;52.600;7.318;2022-11-23T08:34:08;17;14;
47810;PMS5003;33575;52.600;7.318;2022-11-23T08:36:38;15;14;
47810;PMS5003;33575;52.600;7.318;2022-11-23T08:39:09;18;17;
47810;PMS5003;33575;52.600;7.318;2022-11-23T08:41:39;19;17;
47810;PMS5003;33575;52.600;7.318;2022-11-23T08:44:10;17;16;
47810;PMS5003;33575;52.600;7.318;2022-11-23T08:46:40;20;18;
47810;PMS5003;33575;52.600;7.318;2022-11-23T08:49:10;21;20;
47810;PMS5003;33575;52.600;7.318;2022-11-23T08:51:46;14;13;
47810;PMS5003;33575;52.600;7.318;2022-11-23T08:54:11;15;14;
47810;PMS5003;33575;52.600;7.318;2022-11-23T08:56:42;18;17;
47810;PMS5003;33575;52.600;7.318;2022-11-23T08:59:13;16;16;
47810;PMS5003;33575;52.600;7.318;2022-11-23T09:01:43;18;17;
47810;PMS5003;33575;52.600;7.318;2022-11-23T09:04:19;18;18;
47810;PMS5003;33575;52.600;7.318;2022-11-23T09:06:45;17;15;
47810;PMS5003;33575;52.600;7.318;2022-11-23T09:09:15;18;16;
47810;PMS5003;33575;52.600;7.318;2022-11-23T09:11:46;17;17;
47810;PMS5003;33575;52.600;7.318;2022-11-23T09:14:16;19;19;
47810;PMS5003;33575;52.600;7.318;2022-11-23T09:16:47;17;17;
47810;PMS5003;33575;52.600;7.318;2022-11-23T09:19:17;18;17;
47810;PMS5003;33575;52.600;7.318;2022-11-23T09:21:47;17;16;
47810;PMS5003;33575;52.600;7.318;2022-11-23T09:24:18;19;19;
47810;PMS5003;33575;52.600;7.318;2022-11-23T09:26:48;18;14;
47810;PMS5003;33575;52.600;7.318;2022-11-23T09:29:19;17;16;
47810;PMS5003;33575;52.600;7.318;2022-11-23T09:31:49;13;13;
47810;PMS5003;33575;52.600;7.318;2022-11-23T09:34:19;15;15;
47810;PMS5003;33575;52.600;7.318;2022-11-23T09:36:50;20;20;
47810;PMS5003;33575;52.600;7.318;2022-11-23T09:39:20;20;17;
47810;PMS5003;33575;52.600;7.318;2022-11-23T09:41:58;22;21;
47810;PMS5003;33575;52.600;7.318;2022-11-23T09:44:23;19;18;
47810;PMS5003;33575;52.600;7.318;2022-11-23T09:46:55;19;16;
47810;PMS5003;33575;52.600;7.318;2022-11-23T09:49:22;16;15;
47810;PMS5003;33575;52.600;7.318;2022-11-23T09:51:53;17;15;
47810;PMS5003;33575;52.600;7.318;2022-11-23T09:54:24;17;15;
47810;PMS5003;33575;52.600;7.318;2022-11-23T09:56:59;15;14;
47810;PMS5003;33575;52.600;7.318;2022-11-23T09:59:27;15;15;
47810;PMS5003;33575;52.600;7.318;2022-11-23T10:01:55;13;13;
47810;PMS5003;33575;52.600;7.318;2022-11-23T10:04:27;13;12;
47810;PMS5003;33575;52.600;7.318;2022-11-23T10:06:57;13;10;
47810;PMS5003;33575;52.600;7.318;2022-11-23T10:09:29;14;13;
47810;PMS5003;33575;52.600;7.318;2022-11-23T10:12:00;15;12;
47810;PMS5003;33575;52.600;7.318;2022-11-23T10:14:36;13;10;
47810;PMS5003;33575;52.600;7.318;2022-11-23T10:17:01;17;13;
47810;PMS5003;33575;52.600;7.318;2022-11-23T10:19:32;14;13;
47810;PMS5003;33575;52.600;7.318;2022-11-23T10:22:01;14;12;
47810;PMS5003;33575;52.600;7.318;2022-11-23T10:24:32;18;15;
47810;PMS5003;33575;52.600;7.318;2022-11-23T10:27:01;13;11;
47810;PMS5003;33575;52.600;7.318;2022-11-23T10:29:33;13;13;
47810;PMS5003;33575;52.600;7.318;2022-11-23T10:32:04;14;13;
47810;PMS5003;33575;52.600;7.318;2022-11-23T10:34:40;15;14;
47810;PMS5003;33575;52.600;7.318;2022-11-23T10:37:07;14;12;
47810;PMS5003;33575;52.600;7.318;2022-11-23T10:39:34;10;9;
47810;PMS5003;33575;52.600;7.318;2022-11-23T10:42:08;14;13;
47810;PMS5003;33575;52.600;7.318;2022-11-23T10:44:36;12;12;
47810;PMS5003;33575;52.600;7.318;2022-11-23T10:47:06;13;11;
47810;PMS5003;33575;52.600;7.318;2022-11-23T10:49:36;12;11;
47810;PMS5003;33575;52.600;7.318;2022-11-23T10:52:24;13;12;
47810;PMS5003;33575;52.600;7.318;2022-11-23T10:54:39;13;11;
47810;PMS5003;33575;52.600;7.318;2022-11-23T10:59:38;14;12;
47810;PMS5003;33575;52.600;7.318;2022-11-23T11:02:13;12;12;
47810;PMS5003;33575;52.600;7.318;2022-11-23T11:04:39;11;11;
47810;PMS5003;33575;52.600;7.318;2022-11-23T11:09:40;8;8;
47810;PMS5003;33575;52.600;7.318;2022-11-23T11:12:14;11;10;
47810;PMS5003;33575;52.600;7.318;2022-11-23T11:17:13;7;6;
47810;PMS5003;33575;52.600;7.318;2022-11-23T11:19:42;9;7;
47810;PMS5003;33575;52.600;7.318;2022-11-23T11:24:44;7;7;
47810;PMS5003;33575;52.600;7.318;2022-11-23T11:27:15;6;4;
47810;PMS5003;33575;52.600;7.318;2022-11-23T11:29:46;6;6;
47810;PMS5003;33575;52.600;7.318;2022-11-23T11:32:16;6;5;
47810;PMS5003;33575;52.600;7.318;2022-11-23T11:34:46;8;8;
47810;PMS5003;33575;52.600;7.318;2022-11-23T11:37:17;7;6;
47810;PMS5003;33575;52.600;7.318;2022-11-23T11:39:48;9;7;
47810;PMS5003;33575;52.600;7.318;2022-11-23T11:42:18;5;5;
47810;PMS5003;33575;52.600;7.318;2022-11-23T11:44:49;7;5;
47810;PMS5003;33575;52.600;7.318;2022-11-23T11:47:22;7;6;
47810;PMS5003;33575;52.600;7.318;2022-11-23T11:49:49;6;3;
47810;PMS5003;33575;52.600;7.318;2022-11-23T11:52:20;6;6;
47810;PMS5003;33575;52.600;7.318;2022-11-23T11:54:52;5;5;
47810;PMS5003;33575;52.600;7.318;2022-11-23T11:57:22;5;4;
47810;PMS5003;33575;52.600;7.318;2022-11-23T11:59:52;10;7;
47810;PMS5003;33575;52.600;7.318;2022-11-23T12:02:23;7;7;
47810;PMS5003;33575;52.600;7.318;2022-11-23T12:04:56;6;6;
47810;PMS5003;33575;52.600;7.318;2022-11-23T12:07:26;8;5;
47810;PMS5003;33575;52.600;7.318;2022-11-23T12:09:55;7;6;
47810;PMS5003;33575;52.600;7.318;2022-11-23T12:12:29;5;5;
47810;PMS5003;33575;52.600;7.318;2022-11-23T12:14:55;5;5;
47810;PMS5003;33575;52.600;7.318;2022-11-23T12:17:35;7;7;
47810;PMS5003;33575;52.600;7.318;2022-11-23T12:19:57;7;6;
47810;PMS5003;33575;52.600;7.318;2022-11-23T12:22:30;6;5;
47810;PMS5003;33575;52.600;7.318;2022-11-23T12:25:01;4;4;
47810;PMS5003;33575;52.600;7.318;2022-11-23T12:27:29;4;4;
47810;PMS5003;33575;52.600;7.318;2022-11-23T12:30:02;6;5;
47810;PMS5003;33575;52.600;7.318;2022-11-23T12:32:30;4;4;
47810;PMS5003;33575;52.600;7.318;2022-11-23T12:35:06;6;4;
47810;PMS5003;33575;52.600;7.318;2022-11-23T12:37:33;7;6;
47810;PMS5003;33575;52.600;7.318;2022-11-23T12:40:12;5;5;
47810;PMS5003;33575;52.600;7.318;2022-11-23T12:42:33;5;5;
47810;PMS5003;33575;52.600;7.318;2022-11-23T12:45:05;2;2;
47810;PMS5003;33575;52.600;7.318;2022-11-23T12:47:37;4;4;
47810;PMS5003;33575;52.600;7.318;2022-11-23T12:50:05;4;3;
47810;PMS5003;33575;52.600;7.318;2022-11-23T12:52:37;3;3;
47810;PMS5003;33575;52.600;7.318;2022-11-23T12:55:07;4;4;
47810;PMS5003;33575;52.600;7.318;2022-11-23T12:57:35;3;3;
47810;PMS5003;33575;52.600;7.318;2022-11-23T13:00:06;5;4;
47810;PMS5003;33575;52.600;7.318;2022-11-23T13:07:47;4;3;
47810;PMS5003;33575;52.600;7.318;2022-11-23T13:10:12;5;4;
47810;PMS5003;33575;52.600;7.318;2022-11-23T13:12:42;7;5;
47810;PMS5003;33575;52.600;7.318;2022-11-23T13:17:40;3;2;
47810;PMS5003;33575;52.600;7.318;2022-11-23T13:20:14;5;5;
47810;PMS5003;33575;52.600;7.318;2022-11-23T13:22:40;4;3;
47810;PMS5003;33575;52.600;7.318;2022-11-23T13:27:43;3;3;
47810;PMS5003;33575;52.600;7.318;2022-11-23T13:32:50;3;3;
47810;PMS5003;33575;52.600;7.318;2022-11-23T13:40:20;4;3;
47810;PMS5003;33575;52.600;7.318;2022-11-23T13:42:45;4;4;
47810;PMS5003;33575;52.600;7.318;2022-11-23T13:45:20;4;3;
47810;PMS5003;33575;52.600;7.318;2022-11-23T13:50:17;1;1;
47810;PMS5003;33575;52.600;7.318;2022-11-23T13:52:48;3;3;
47810;PMS5003;33575;52.600;7.318;2022-11-23T13:55:19;3;3;
47810;PMS5003;33575;52.600;7.318;2022-11-23T14:02:50;4;3;
47810;PMS5003;33575;52.600;7.318;2022-11-23T14:07:51;3;3;
47810;PMS5003;33575;52.600;7.318;2022-11-23T14:10:22;3;3;
47810;PMS5003;33575;52.600;7.318;2022-11-23T14:12:53;2;2;
47810;PMS5003;33575;52.600;7.318;2022-11-23T14:15:23;1;1;
47810;PMS5003;33575;52.600;7.318;2022-11-23T14:17:57;4;4;
47810;PMS5003;33575;52.600;7.318;2022-11-23T14:22:59;2;2;
47810;PMS5003;33575;52.600;7.318;2022-11-23T14:25:28;3;3;
47810;PMS5003;33575;52.600;7.318;2022-11-23T14:27:58;5;4;
47810;PMS5003;33575;52.600;7.318;2022-11-23T14:30:31;3;3;
47810;PMS5003;33575;52.600;7.318;2022-11-23T14:33:05;3;3;
47810;PMS5003;33575;52.600;7.318;2022-11-23T14:35:29;3;2;
47810;PMS5003;33575;52.600;7.318;2022-11-23T14:38:06;4;2;
47810;PMS5003;33575;52.600;7.318;2022-11-23T14:40:29;4;3;
47810;PMS5003;33575;52.600;7.318;2022-11-23T14:42:59;5;3;
47810;PMS5003;33575;52.600;7.318;2022-11-23T14:45:31;4;4;
47810;PMS5003;33575;52.600;7.318;2022-11-23T14:50:31;5;3;
47810;PMS5003;33575;52.600;7.318;2022-11-23T14:53:02;2;2;
47810;PMS5003;33575;52.600;7.318;2022-11-23T14:55:32;4;3;
47810;PMS5003;33575;52.600;7.318;2022-11-23T14:58:03;3;2;
47810;PMS5003;33575;52.600;7.318;2022-11-23T15:00:34;4;3;
47810;PMS5003;33575;52.600;7.318;2022-11-23T15:03:11;5;4;
47810;PMS5003;33575;52.600;7.318;2022-11-23T15:05:35;4;3;
47810;PMS5003;33575;52.600;7.318;2022-11-23T15:08:08;5;4;
47810;PMS5003;33575;52.600;7.318;2022-11-23T15:10:37;4;3;
47810;PMS5003;33575;52.600;7.318;2022-11-23T15:15:37;4;3;
47810;PMS5003;33575;52.600;7.318;2022-11-23T15:18:08;4;2;
47810;PMS5003;33575;52.600;7.318;2022-11-23T15:20:40;5;2;
47810;PMS5003;33575;52.600;7.318;2022-11-23T15:23:10;9;7;
47810;PMS5003;33575;52.600;7.318;2022-11-23T15:28:11;1;1;
47810;PMS5003;33575;52.600;7.318;2022-11-23T15:30:41;4;3;
47810;PMS5003;33575;52.600;7.318;2022-11-23T15:33:12;2;2;
47810;PMS5003;33575;52.600;7.318;2022-11-23T15:35:42;4;3;
47810;PMS5003;33575;52.600;7.318;2022-11-23T15:38:13;4;2;
47810;PMS5003;33575;52.600;7.318;2022-11-23T15:40:44;5;4;
47810;PMS5003;33575;52.600;7.318;2022-11-23T15:43:14;3;3;
47810;PMS5003;33575;52.600;7.318;2022-11-23T15:48:16;6;3;
47810;PMS5003;33575;52.600;7.318;2022-11-23T15:50:46;3;3;
47810;PMS5003;33575;52.600;7.318;2022-11-23T15:53:16;5;5;
47810;PMS5003;33575;52.600;7.318;2022-11-23T15:55:47;5;4;
47810;PMS5003;33575;52.600;7.318;2022-11-23T15:58:18;5;3;
47810;PMS5003;33575;52.600;7.318;2022-11-23T16:00:49;5;4;
47810;PMS5003;33575;52.600;7.318;2022-11-23T16:03:25;4;3;
47810;PMS5003;33575;52.600;7.318;2022-11-23T16:08:22;6;4;
47810;PMS5003;33575;52.600;7.318;2022-11-23T16:10:52;8;6;
47810;PMS5003;33575;52.600;7.318;2022-11-23T16:15:56;5;5;
47810;PMS5003;33575;52.600;7.318;2022-11-23T16:18:23;7;6;
47810;PMS5003;33575;52.600;7.318;2022-11-23T16:20:54;6;6;
47810;PMS5003;33575;52.600;7.318;2022-11-23T16:23:25;7;5;
47810;PMS5003;33575;52.600;7.318;2022-11-23T16:25:55;5;5;
47810;PMS5003;33575;52.600;7.318;2022-11-23T16:28:27;8;6;
47810;PMS5003;33575;52.600;7.318;2022-11-23T16:30:56;8;6;
47810;PMS5003;33575;52.600;7.318;2022-11-23T16:33:26;9;6;
47810;PMS5003;33575;52.600;7.318;2022-11-23T16:35:57;5;5;
47810;PMS5003;33575;52.600;7.318;2022-11-23T16:38:27;8;6;
47810;PMS5003;33575;52.600;7.318;2022-11-23T16:40:58;6;6;
47810;PMS5003;33575;52.600;7.318;2022-11-23T16:43:29;7;5;
47810;PMS5003;33575;52.600;7.318;2022-11-23T16:45:59;6;5;
47810;PMS5003;33575;52.600;7.318;2022-11-23T16:48:35;8;6;
47810;PMS5003;33575;52.600;7.318;2022-11-23T16:51:00;7;6;
47810;PMS5003;33575;52.600;7.318;2022-11-23T16:53:36;8;6;
47810;PMS5003;33575;52.600;7.318;2022-11-23T16:56:02;5;5;
47810;PMS5003;33575;52.600;7.318;2022-11-23T16:58:33;5;5;
47810;PMS5003;33575;52.600;7.318;2022-11-23T17:01:03;6;5;
47810;PMS5003;33575;52.600;7.318;2022-11-23T17:03:33;6;5;
47810;PMS5003;33575;52.600;7.318;2022-11-23T17:06:04;5;5;
47810;PMS5003;33575;52.600;7.318;2022-11-23T17:08:35;5;5;
47810;PMS5003;33575;52.600;7.318;2022-11-23T17:11:07;7;5;
47810;PMS5003;33575;52.600;7.318;2022-11-23T17:13:36;5;5;
47810;PMS5003;33575;52.600;7.318;2022-11-23T17:16:08;6;6;
47810;PMS5003;33575;52.600;7.318;2022-11-23T17:18:37;6;5;
47810;PMS5003;33575;52.600;7.318;2022-11-23T17:21:08;7;6;
47810;PMS5003;33575;52.600;7.318;2022-11-23T17:23:39;4;4;
47810;PMS5003;33575;52.600;7.318;2022-11-23T17:26:21;6;6;
47810;PMS5003;33575;52.600;7.318;2022-11-23T17:28:40;7;6;
47810;PMS5003;33575;52.600;7.318;2022-11-23T17:31:10;4;4;
47810;PMS5003;33575;52.600;7.318;2022-11-23T17:33:41;6;6;
47810;PMS5003;33575;52.600;7.318;2022-11-23T17:36:12;9;7;
47810;PMS5003;33575;52.600;7.318;2022-11-23T17:38:42;7;6;
47810;PMS5003;33575;52.600;7.318;2022-11-23T17:41:13;6;5;
47810;PMS5003;33575;52.600;7.318;2022-11-23T17:43:43;4;4;
47810;PMS5003;33575;52.600;7.318;2022-11-23T17:46:16;6;6;
47810;PMS5003;33575;52.600;7.318;2022-11-23T17:48:45;6;6;